sensor_id;sensor_type;location;lat;lon;timestamp;P1;durP1;ratioP1;P2;durP2;ratioP2
25263;SDS011;13211;51.796;5.808;2024-02-26T00:02:25;5.50;;;2.80;;
25263;SDS011;13211;51.796;5.808;2024-02-26T00:04:53;7.10;;;3.03;;
25263;SDS011;13211;51.796;5.808;2024-02-26T00:07:21;5.57;;;2.78;;
25263;SDS011;13211;51.796;5.808;2024-02-26T00:09:48;6.15;;;2.80;;
25263;SDS011;13211;51.796;5.808;2024-02-26T00:12:16;6.97;;;3.10;;
25263;SDS011;13211;51.796;5.808;2024-02-26T00:14:44;6.10;;;3.00;;
25263;SDS011;13211;51.796;5.808;2024-02-26T00:17:13;5.20;;;3.00;;
25263;SDS011;13211;51.796;5.808;2024-02-26T00:19:41;6.57;;;3.15;;
25263;SDS011;13211;51.796;5.808;2024-02-26T00:22:09;4.77;;;2.90;;
25263;SDS011;13211;51.796;5.808;2024-02-26T00:24:37;6.93;;;2.90;;
25263;SDS011;13211;51.796;5.808;2024-02-26T00:27:04;5.72;;;2.80;;
25263;SDS011;13211;51.796;5.808;2024-02-26T00:29:32;7.10;;;3.10;;
25263;SDS011;13211;51.796;5.808;2024-02-26T00:32:00;6.00;;;3.13;;
25263;SDS011;13211;51.796;5.808;2024-02-26T00:34:27;6.43;;;3.40;;
25263;SDS011;13211;51.796;5.808;2024-02-26T00:36:55;5.63;;;3.17;;
25263;SDS011;13211;51.796;5.808;2024-02-26T00:39:23;6.57;;;3.22;;
25263;SDS011;13211;51.796;5.808;2024-02-26T00:41:51;5.13;;;3.23;;
25263;SDS011;13211;51.796;5.808;2024-02-26T00:44:19;7.53;;;3.70;;
25263;SDS011;13211;51.796;5.808;2024-02-26T00:46:47;6.23;;;3.63;;
25263;SDS011;13211;51.796;5.808;2024-02-26T00:49:14;6.63;;;3.77;;
25263;SDS011;13211;51.796;5.808;2024-02-26T00:51:42;5.63;;;3.53;;
25263;SDS011;13211;51.796;5.808;2024-02-26T00:54:10;4.93;;;3.00;;
25263;SDS011;13211;51.796;5.808;2024-02-26T00:56:38;6.47;;;3.53;;
25263;SDS011;13211;51.796;5.808;2024-02-26T00:59:05;5.40;;;3.00;;
25263;SDS011;13211;51.796;5.808;2024-02-26T01:01:33;6.45;;;3.35;;
25263;SDS011;13211;51.796;5.808;2024-02-26T01:04:01;9.10;;;3.63;;
25263;SDS011;13211;51.796;5.808;2024-02-26T01:06:30;6.72;;;3.50;;
25263;SDS011;13211;51.796;5.808;2024-02-26T01:08:58;8.43;;;3.57;;
25263;SDS011;13211;51.796;5.808;2024-02-26T01:11:28;5.38;;;3.47;;
25263;SDS011;13211;51.796;5.808;2024-02-26T01:14:01;6.20;;;3.30;;
25263;SDS011;13211;51.796;5.808;2024-02-26T01:16:30;7.85;;;3.28;;
25263;SDS011;13211;51.796;5.808;2024-02-26T01:18:58;5.28;;;3.20;;
25263;SDS011;13211;51.796;5.808;2024-02-26T01:21:26;6.00;;;3.47;;
25263;SDS011;13211;51.796;5.808;2024-02-26T01:23:55;7.93;;;3.55;;
25263;SDS011;13211;51.796;5.808;2024-02-26T01:26:24;5.22;;;3.10;;
25263;SDS011;13211;51.796;5.808;2024-02-26T01:28:52;6.87;;;3.60;;
25263;SDS011;13211;51.796;5.808;2024-02-26T01:31:21;5.70;;;3.20;;
25263;SDS011;13211;51.796;5.808;2024-02-26T01:33:49;6.93;;;3.22;;
25263;SDS011;13211;51.796;5.808;2024-02-26T01:36:17;9.57;;;3.50;;
25263;SDS011;13211;51.796;5.808;2024-02-26T01:38:44;6.72;;;3.30;;
25263;SDS011;13211;51.796;5.808;2024-02-26T01:41:15;5.97;;;3.10;;
25263;SDS011;13211;51.796;5.808;2024-02-26T01:43:43;6.93;;;3.50;;
25263;SDS011;13211;51.796;5.808;2024-02-26T01:46:12;5.97;;;3.30;;
25263;SDS011;13211;51.796;5.808;2024-02-26T01:48:41;5.57;;;3.27;;
25263;SDS011;13211;51.796;5.808;2024-02-26T01:51:10;5.47;;;3.22;;
25263;SDS011;13211;51.796;5.808;2024-02-26T01:53:38;6.90;;;3.00;;
25263;SDS011;13211;51.796;5.808;2024-02-26T01:56:06;5.50;;;3.40;;
25263;SDS011;13211;51.796;5.808;2024-02-26T01:58:34;6.33;;;3.30;;
25263;SDS011;13211;51.796;5.808;2024-02-26T02:01:02;6.43;;;3.43;;
25263;SDS011;13211;51.796;5.808;2024-02-26T02:03:30;6.72;;;3.83;;
25263;SDS011;13211;51.796;5.808;2024-02-26T02:05:58;5.40;;;3.58;;
25263;SDS011;13211;51.796;5.808;2024-02-26T02:08:26;7.78;;;3.60;;
25263;SDS011;13211;51.796;5.808;2024-02-26T02:10:54;6.97;;;3.67;;
25263;SDS011;13211;51.796;5.808;2024-02-26T02:13:22;7.95;;;3.83;;
25263;SDS011;13211;51.796;5.808;2024-02-26T02:15:49;7.70;;;3.53;;
25263;SDS011;13211;51.796;5.808;2024-02-26T02:18:17;5.88;;;3.38;;
25263;SDS011;13211;51.796;5.808;2024-02-26T02:20:45;6.10;;;3.60;;
25263;SDS011;13211;51.796;5.808;2024-02-26T02:23:13;6.97;;;3.42;;
25263;SDS011;13211;51.796;5.808;2024-02-26T02:25:40;6.78;;;3.40;;
25263;SDS011;13211;51.796;5.808;2024-02-26T02:28:08;5.38;;;3.20;;
25263;SDS011;13211;51.796;5.808;2024-02-26T02:30:36;4.72;;;3.00;;
25263;SDS011;13211;51.796;5.808;2024-02-26T02:33:09;4.97;;;3.20;;
25263;SDS011;13211;51.796;5.808;2024-02-26T02:35:39;8.13;;;3.33;;
25263;SDS011;13211;51.796;5.808;2024-02-26T02:38:06;5.35;;;3.00;;
25263;SDS011;13211;51.796;5.808;2024-02-26T02:40:34;4.55;;;2.90;;
25263;SDS011;13211;51.796;5.808;2024-02-26T02:43:02;6.82;;;2.92;;
25263;SDS011;13211;51.796;5.808;2024-02-26T02:45:31;6.20;;;3.13;;
25263;SDS011;13211;51.796;5.808;2024-02-26T02:47:59;5.15;;;3.13;;
25263;SDS011;13211;51.796;5.808;2024-02-26T02:50:27;5.32;;;3.40;;
25263;SDS011;13211;51.796;5.808;2024-02-26T02:52:55;6.53;;;3.40;;
25263;SDS011;13211;51.796;5.808;2024-02-26T02:55:23;5.33;;;3.20;;
25263;SDS011;13211;51.796;5.808;2024-02-26T02:57:50;5.68;;;3.40;;
25263;SDS011;13211;51.796;5.808;2024-02-26T03:00:20;5.25;;;3.40;;
25263;SDS011;13211;51.796;5.808;2024-02-26T03:02:49;7.05;;;3.80;;
25263;SDS011;13211;51.796;5.808;2024-02-26T03:05:17;6.93;;;4.05;;
25263;SDS011;13211;51.796;5.808;2024-02-26T03:07:45;5.93;;;3.80;;
25263;SDS011;13211;51.796;5.808;2024-02-26T03:10:12;6.53;;;3.88;;
25263;SDS011;13211;51.796;5.808;2024-02-26T03:12:40;6.65;;;4.07;;
25263;SDS011;13211;51.796;5.808;2024-02-26T03:15:08;7.80;;;4.25;;
25263;SDS011;13211;51.796;5.808;2024-02-26T03:17:37;5.22;;;3.85;;
25263;SDS011;13211;51.796;5.808;2024-02-26T03:20:06;8.18;;;4.00;;
25263;SDS011;13211;51.796;5.808;2024-02-26T03:22:35;7.97;;;3.97;;
25263;SDS011;13211;51.796;5.808;2024-02-26T03:25:06;6.68;;;4.30;;
25263;SDS011;13211;51.796;5.808;2024-02-26T03:27:33;7.60;;;4.40;;
25263;SDS011;13211;51.796;5.808;2024-02-26T03:30:02;7.35;;;4.63;;
25263;SDS011;13211;51.796;5.808;2024-02-26T03:32:30;6.38;;;4.13;;
25263;SDS011;13211;51.796;5.808;2024-02-26T03:34:58;5.97;;;4.10;;
25263;SDS011;13211;51.796;5.808;2024-02-26T03:37:26;7.97;;;4.68;;
25263;SDS011;13211;51.796;5.808;2024-02-26T03:39:54;6.90;;;4.40;;
25263;SDS011;13211;51.796;5.808;2024-02-26T03:42:24;6.67;;;4.17;;
25263;SDS011;13211;51.796;5.808;2024-02-26T03:44:52;7.18;;;4.43;;
25263;SDS011;13211;51.796;5.808;2024-02-26T03:47:19;6.07;;;4.10;;
25263;SDS011;13211;51.796;5.808;2024-02-26T03:49:47;5.93;;;3.80;;
25263;SDS011;13211;51.796;5.808;2024-02-26T03:52:18;7.15;;;3.80;;
25263;SDS011;13211;51.796;5.808;2024-02-26T03:54:46;6.85;;;3.75;;
25263;SDS011;13211;51.796;5.808;2024-02-26T03:57:14;6.22;;;3.70;;
25263;SDS011;13211;51.796;5.808;2024-02-26T03:59:41;6.22;;;4.20;;
25263;SDS011;13211;51.796;5.808;2024-02-26T04:02:09;8.23;;;3.90;;
25263;SDS011;13211;51.796;5.808;2024-02-26T04:04:37;6.10;;;3.50;;
25263;SDS011;13211;51.796;5.808;2024-02-26T04:07:06;7.00;;;4.15;;
25263;SDS011;13211;51.796;5.808;2024-02-26T04:09:34;8.93;;;3.95;;
25263;SDS011;13211;51.796;5.808;2024-02-26T04:12:02;7.25;;;3.80;;
25263;SDS011;13211;51.796;5.808;2024-02-26T04:14:30;7.53;;;3.90;;
25263;SDS011;13211;51.796;5.808;2024-02-26T04:16:57;5.95;;;4.20;;
25263;SDS011;13211;51.796;5.808;2024-02-26T04:19:27;7.45;;;4.22;;
25263;SDS011;13211;51.796;5.808;2024-02-26T04:21:54;6.03;;;3.90;;
25263;SDS011;13211;51.796;5.808;2024-02-26T04:24:22;7.30;;;4.18;;
25263;SDS011;13211;51.796;5.808;2024-02-26T04:26:50;5.35;;;4.00;;
25263;SDS011;13211;51.796;5.808;2024-02-26T04:29:17;6.10;;;4.00;;
25263;SDS011;13211;51.796;5.808;2024-02-26T04:31:45;5.05;;;3.65;;
25263;SDS011;13211;51.796;5.808;2024-02-26T04:34:13;7.95;;;4.13;;
25263;SDS011;13211;51.796;5.808;2024-02-26T04:36:41;6.90;;;4.40;;
25263;SDS011;13211;51.796;5.808;2024-02-26T04:39:09;8.25;;;4.25;;
25263;SDS011;13211;51.796;5.808;2024-02-26T04:41:37;6.30;;;4.22;;
25263;SDS011;13211;51.796;5.808;2024-02-26T04:44:05;9.77;;;5.43;;
25263;SDS011;13211;51.796;5.808;2024-02-26T04:46:32;8.07;;;5.20;;
25263;SDS011;13211;51.796;5.808;2024-02-26T04:49:01;10.27;;;5.35;;
25263;SDS011;13211;51.796;5.808;2024-02-26T04:51:29;8.23;;;5.53;;
25263;SDS011;13211;51.796;5.808;2024-02-26T04:53:57;9.57;;;5.80;;
25263;SDS011;13211;51.796;5.808;2024-02-26T04:56:24;9.27;;;6.30;;
25263;SDS011;13211;51.796;5.808;2024-02-26T04:58:52;10.65;;;6.55;;
25263;SDS011;13211;51.796;5.808;2024-02-26T05:01:20;9.13;;;6.53;;
25263;SDS011;13211;51.796;5.808;2024-02-26T05:03:48;9.10;;;6.82;;
25263;SDS011;13211;51.796;5.808;2024-02-26T05:06:16;11.02;;;7.60;;
25263;SDS011;13211;51.796;5.808;2024-02-26T05:08:44;9.67;;;6.80;;
25263;SDS011;13211;51.796;5.808;2024-02-26T05:11:12;10.35;;;7.30;;
25263;SDS011;13211;51.796;5.808;2024-02-26T05:13:40;11.32;;;7.65;;
25263;SDS011;13211;51.796;5.808;2024-02-26T05:16:09;10.67;;;7.47;;
25263;SDS011;13211;51.796;5.808;2024-02-26T05:18:37;11.32;;;7.75;;
25263;SDS011;13211;51.796;5.808;2024-02-26T05:21:05;11.38;;;7.25;;
25263;SDS011;13211;51.796;5.808;2024-02-26T05:23:33;13.18;;;7.70;;
25263;SDS011;13211;51.796;5.808;2024-02-26T05:26:01;12.10;;;7.85;;
25263;SDS011;13211;51.796;5.808;2024-02-26T05:28:28;9.77;;;7.45;;
25263;SDS011;13211;51.796;5.808;2024-02-26T05:30:56;12.02;;;8.00;;
25263;SDS011;13211;51.796;5.808;2024-02-26T05:33:23;12.40;;;7.65;;
25263;SDS011;13211;51.796;5.808;2024-02-26T05:35:52;13.77;;;8.07;;
25263;SDS011;13211;51.796;5.808;2024-02-26T05:38:20;10.65;;;7.70;;
25263;SDS011;13211;51.796;5.808;2024-02-26T05:40:48;10.37;;;7.23;;
25263;SDS011;13211;51.796;5.808;2024-02-26T05:43:18;9.38;;;7.05;;
25263;SDS011;13211;51.796;5.808;2024-02-26T05:45:47;10.48;;;7.63;;
25263;SDS011;13211;51.796;5.808;2024-02-26T05:48:14;11.52;;;7.32;;
25263;SDS011;13211;51.796;5.808;2024-02-26T05:50:42;10.23;;;7.32;;
25263;SDS011;13211;51.796;5.808;2024-02-26T05:53:10;10.73;;;7.28;;
25263;SDS011;13211;51.796;5.808;2024-02-26T05:55:38;9.27;;;6.90;;
25263;SDS011;13211;51.796;5.808;2024-02-26T05:58:06;9.57;;;6.90;;
25263;SDS011;13211;51.796;5.808;2024-02-26T06:00:33;10.55;;;7.00;;
25263;SDS011;13211;51.796;5.808;2024-02-26T06:03:01;9.18;;;6.63;;
25263;SDS011;13211;51.796;5.808;2024-02-26T06:05:29;7.82;;;6.40;;
25263;SDS011;13211;51.796;5.808;2024-02-26T06:07:57;10.15;;;6.88;;
25263;SDS011;13211;51.796;5.808;2024-02-26T06:10:25;11.07;;;6.70;;
25263;SDS011;13211;51.796;5.808;2024-02-26T06:12:53;9.82;;;7.00;;
25263;SDS011;13211;51.796;5.808;2024-02-26T06:15:20;10.82;;;6.63;;
25263;SDS011;13211;51.796;5.808;2024-02-26T06:17:49;10.50;;;6.97;;
25263;SDS011;13211;51.796;5.808;2024-02-26T06:20:17;10.43;;;6.68;;
25263;SDS011;13211;51.796;5.808;2024-02-26T06:22:45;10.63;;;6.80;;
25263;SDS011;13211;51.796;5.808;2024-02-26T06:25:13;9.75;;;6.82;;
25263;SDS011;13211;51.796;5.808;2024-02-26T06:27:40;9.73;;;6.63;;
25263;SDS011;13211;51.796;5.808;2024-02-26T06:30:08;8.48;;;6.60;;
25263;SDS011;13211;51.796;5.808;2024-02-26T06:32:38;9.07;;;6.10;;
25263;SDS011;13211;51.796;5.808;2024-02-26T06:35:09;10.85;;;6.60;;
25263;SDS011;13211;51.796;5.808;2024-02-26T06:37:38;9.65;;;6.90;;
25263;SDS011;13211;51.796;5.808;2024-02-26T06:40:06;11.02;;;6.85;;
25263;SDS011;13211;51.796;5.808;2024-02-26T06:42:34;10.00;;;6.90;;
25263;SDS011;13211;51.796;5.808;2024-02-26T06:45:02;10.25;;;7.18;;
25263;SDS011;13211;51.796;5.808;2024-02-26T06:47:31;10.18;;;7.40;;
25263;SDS011;13211;51.796;5.808;2024-02-26T06:50:03;10.18;;;7.07;;
25263;SDS011;13211;51.796;5.808;2024-02-26T06:52:31;9.05;;;7.03;;
25263;SDS011;13211;51.796;5.808;2024-02-26T06:54:59;9.75;;;7.10;;
25263;SDS011;13211;51.796;5.808;2024-02-26T06:57:27;9.80;;;7.00;;
25263;SDS011;13211;51.796;5.808;2024-02-26T06:59:55;9.45;;;7.28;;
25263;SDS011;13211;51.796;5.808;2024-02-26T07:02:27;8.77;;;7.00;;
25263;SDS011;13211;51.796;5.808;2024-02-26T07:04:54;11.65;;;6.82;;
25263;SDS011;13211;51.796;5.808;2024-02-26T07:07:29;10.05;;;6.70;;
25263;SDS011;13211;51.796;5.808;2024-02-26T07:09:57;10.30;;;7.40;;
25263;SDS011;13211;51.796;5.808;2024-02-26T07:12:25;11.13;;;7.18;;
25263;SDS011;13211;51.796;5.808;2024-02-26T07:14:53;10.35;;;7.32;;
25263;SDS011;13211;51.796;5.808;2024-02-26T07:17:21;10.25;;;7.30;;
25263;SDS011;13211;51.796;5.808;2024-02-26T07:19:49;9.80;;;7.22;;
25263;SDS011;13211;51.796;5.808;2024-02-26T07:22:17;11.00;;;7.32;;
25263;SDS011;13211;51.796;5.808;2024-02-26T07:24:45;13.52;;;7.18;;
25263;SDS011;13211;51.796;5.808;2024-02-26T07:27:21;12.85;;;7.72;;
25263;SDS011;13211;51.796;5.808;2024-02-26T07:29:49;10.73;;;7.72;;
25263;SDS011;13211;51.796;5.808;2024-02-26T07:32:16;10.70;;;8.05;;
25263;SDS011;13211;51.796;5.808;2024-02-26T07:34:44;10.93;;;7.55;;
25263;SDS011;13211;51.796;5.808;2024-02-26T07:37:12;12.10;;;7.20;;
25263;SDS011;13211;51.796;5.808;2024-02-26T07:39:39;10.85;;;7.68;;
25263;SDS011;13211;51.796;5.808;2024-02-26T07:42:07;12.70;;;8.60;;
25263;SDS011;13211;51.796;5.808;2024-02-26T07:44:35;12.50;;;8.02;;
25263;SDS011;13211;51.796;5.808;2024-02-26T07:47:03;12.77;;;7.97;;
25263;SDS011;13211;51.796;5.808;2024-02-26T07:49:31;11.68;;;8.00;;
25263;SDS011;13211;51.796;5.808;2024-02-26T07:52:04;10.70;;;7.70;;
25263;SDS011;13211;51.796;5.808;2024-02-26T07:54:38;9.90;;;7.30;;
25263;SDS011;13211;51.796;5.808;2024-02-26T07:57:05;10.48;;;7.57;;
25263;SDS011;13211;51.796;5.808;2024-02-26T07:59:34;13.43;;;8.27;;
25263;SDS011;13211;51.796;5.808;2024-02-26T08:02:01;15.70;;;7.85;;
25263;SDS011;13211;51.796;5.808;2024-02-26T08:04:29;12.57;;;8.48;;
25263;SDS011;13211;51.796;5.808;2024-02-26T08:06:58;11.20;;;8.40;;
25263;SDS011;13211;51.796;5.808;2024-02-26T08:09:26;12.38;;;8.82;;
25263;SDS011;13211;51.796;5.808;2024-02-26T08:11:54;13.60;;;9.02;;
25263;SDS011;13211;51.796;5.808;2024-02-26T08:14:22;12.27;;;9.82;;
25263;SDS011;13211;51.796;5.808;2024-02-26T08:16:49;13.30;;;9.20;;
25263;SDS011;13211;51.796;5.808;2024-02-26T08:19:22;16.55;;;10.75;;
25263;SDS011;13211;51.796;5.808;2024-02-26T08:21:50;16.98;;;10.23;;
25263;SDS011;13211;51.796;5.808;2024-02-26T08:24:29;15.10;;;10.30;;
25263;SDS011;13211;51.796;5.808;2024-02-26T08:26:57;14.07;;;10.85;;
25263;SDS011;13211;51.796;5.808;2024-02-26T08:29:25;15.13;;;10.68;;
25263;SDS011;13211;51.796;5.808;2024-02-26T08:31:52;16.52;;;10.70;;
25263;SDS011;13211;51.796;5.808;2024-02-26T08:34:20;17.08;;;11.57;;
25263;SDS011;13211;51.796;5.808;2024-02-26T08:36:54;15.18;;;11.10;;
25263;SDS011;13211;51.796;5.808;2024-02-26T08:39:22;17.85;;;12.02;;
25263;SDS011;13211;51.796;5.808;2024-02-26T08:41:53;16.07;;;11.37;;
25263;SDS011;13211;51.796;5.808;2024-02-26T08:44:20;17.80;;;12.88;;
25263;SDS011;13211;51.796;5.808;2024-02-26T08:46:51;20.90;;;13.20;;
25263;SDS011;13211;51.796;5.808;2024-02-26T08:49:18;18.60;;;13.02;;
25263;SDS011;13211;51.796;5.808;2024-02-26T08:51:47;21.77;;;14.32;;
25263;SDS011;13211;51.796;5.808;2024-02-26T08:54:19;21.02;;;14.38;;
25263;SDS011;13211;51.796;5.808;2024-02-26T08:56:47;21.50;;;14.93;;
25263;SDS011;13211;51.796;5.808;2024-02-26T08:59:15;20.58;;;15.20;;
25263;SDS011;13211;51.796;5.808;2024-02-26T09:01:42;23.83;;;15.38;;
25263;SDS011;13211;51.796;5.808;2024-02-26T09:04:10;24.50;;;15.43;;
25263;SDS011;13211;51.796;5.808;2024-02-26T09:06:38;26.02;;;16.70;;
25263;SDS011;13211;51.796;5.808;2024-02-26T09:09:06;26.60;;;17.60;;
25263;SDS011;13211;51.796;5.808;2024-02-26T09:11:33;26.15;;;17.25;;
25263;SDS011;13211;51.796;5.808;2024-02-26T09:14:01;25.67;;;17.70;;
25263;SDS011;13211;51.796;5.808;2024-02-26T09:16:31;24.00;;;16.80;;
25263;SDS011;13211;51.796;5.808;2024-02-26T09:18:58;25.25;;;16.77;;
25263;SDS011;13211;51.796;5.808;2024-02-26T09:21:26;24.88;;;16.58;;
25263;SDS011;13211;51.796;5.808;2024-02-26T09:23:54;27.13;;;17.67;;
25263;SDS011;13211;51.796;5.808;2024-02-26T09:26:22;27.80;;;17.33;;
25263;SDS011;13211;51.796;5.808;2024-02-26T09:28:49;25.93;;;16.93;;
25263;SDS011;13211;51.796;5.808;2024-02-26T09:31:17;25.43;;;16.73;;
25263;SDS011;13211;51.796;5.808;2024-02-26T09:33:45;25.27;;;16.92;;
25263;SDS011;13211;51.796;5.808;2024-02-26T09:36:13;27.15;;;16.85;;
25263;SDS011;13211;51.796;5.808;2024-02-26T09:38:40;27.00;;;17.67;;
25263;SDS011;13211;51.796;5.808;2024-02-26T09:41:22;25.33;;;16.53;;
25263;SDS011;13211;51.796;5.808;2024-02-26T09:43:49;27.87;;;17.07;;
25263;SDS011;13211;51.796;5.808;2024-02-26T09:46:23;26.70;;;17.13;;
25263;SDS011;13211;51.796;5.808;2024-02-26T09:48:52;26.02;;;16.50;;
25263;SDS011;13211;51.796;5.808;2024-02-26T09:51:22;25.10;;;16.08;;
25263;SDS011;13211;51.796;5.808;2024-02-26T09:53:53;26.05;;;16.42;;
25263;SDS011;13211;51.796;5.808;2024-02-26T09:56:24;27.25;;;16.50;;
25263;SDS011;13211;51.796;5.808;2024-02-26T09:58:53;24.30;;;16.07;;
25263;SDS011;13211;51.796;5.808;2024-02-26T10:01:21;28.30;;;17.05;;
25263;SDS011;13211;51.796;5.808;2024-02-26T10:03:52;28.23;;;16.40;;
25263;SDS011;13211;51.796;5.808;2024-02-26T10:06:22;26.55;;;16.77;;
25263;SDS011;13211;51.796;5.808;2024-02-26T10:08:51;31.40;;;17.48;;
25263;SDS011;13211;51.796;5.808;2024-02-26T10:11:19;29.20;;;16.77;;
25263;SDS011;13211;51.796;5.808;2024-02-26T10:13:48;29.30;;;17.33;;
25263;SDS011;13211;51.796;5.808;2024-02-26T10:16:16;30.23;;;17.23;;
25263;SDS011;13211;51.796;5.808;2024-02-26T10:18:47;31.02;;;17.73;;
25263;SDS011;13211;51.796;5.808;2024-02-26T10:21:20;32.00;;;18.55;;
25263;SDS011;13211;51.796;5.808;2024-02-26T10:23:49;32.47;;;18.40;;
25263;SDS011;13211;51.796;5.808;2024-02-26T10:26:17;36.75;;;19.05;;
25263;SDS011;13211;51.796;5.808;2024-02-26T10:28:45;33.67;;;18.83;;
25263;SDS011;13211;51.796;5.808;2024-02-26T10:31:18;32.67;;;19.30;;
25263;SDS011;13211;51.796;5.808;2024-02-26T10:33:46;35.38;;;19.35;;
25263;SDS011;13211;51.796;5.808;2024-02-26T10:36:14;37.73;;;20.17;;
25263;SDS011;13211;51.796;5.808;2024-02-26T10:38:48;34.17;;;19.33;;
25263;SDS011;13211;51.796;5.808;2024-02-26T10:41:18;36.90;;;20.92;;
25263;SDS011;13211;51.796;5.808;2024-02-26T10:43:46;37.20;;;20.80;;
25263;SDS011;13211;51.796;5.808;2024-02-26T10:46:14;37.47;;;20.45;;
25263;SDS011;13211;51.796;5.808;2024-02-26T10:48:49;36.10;;;20.45;;
25263;SDS011;13211;51.796;5.808;2024-02-26T10:51:18;35.88;;;20.67;;
25263;SDS011;13211;51.796;5.808;2024-02-26T10:53:48;38.72;;;21.17;;
25263;SDS011;13211;51.796;5.808;2024-02-26T10:56:20;37.65;;;21.02;;
25263;SDS011;13211;51.796;5.808;2024-02-26T10:58:49;36.42;;;20.73;;
25263;SDS011;13211;51.796;5.808;2024-02-26T11:01:17;38.80;;;21.10;;
25263;SDS011;13211;51.796;5.808;2024-02-26T11:03:48;40.58;;;21.02;;
25263;SDS011;13211;51.796;5.808;2024-02-26T11:06:22;37.03;;;20.92;;
25263;SDS011;13211;51.796;5.808;2024-02-26T11:08:51;37.20;;;21.05;;
25263;SDS011;13211;51.796;5.808;2024-02-26T11:11:19;37.92;;;21.10;;
25263;SDS011;13211;51.796;5.808;2024-02-26T11:13:47;37.85;;;21.40;;
25263;SDS011;13211;51.796;5.808;2024-02-26T11:16:21;37.88;;;21.23;;
25263;SDS011;13211;51.796;5.808;2024-02-26T11:18:49;35.67;;;20.92;;
25263;SDS011;13211;51.796;5.808;2024-02-26T11:21:17;34.33;;;20.35;;
25263;SDS011;13211;51.796;5.808;2024-02-26T11:23:49;36.33;;;20.77;;
25263;SDS011;13211;51.796;5.808;2024-02-26T11:26:16;36.42;;;21.67;;
25263;SDS011;13211;51.796;5.808;2024-02-26T11:28:44;36.08;;;20.70;;
25263;SDS011;13211;51.796;5.808;2024-02-26T11:31:12;38.45;;;20.95;;
25263;SDS011;13211;51.796;5.808;2024-02-26T11:33:40;35.78;;;20.90;;
25263;SDS011;13211;51.796;5.808;2024-02-26T11:36:09;36.92;;;22.08;;
25263;SDS011;13211;51.796;5.808;2024-02-26T11:38:38;34.55;;;20.85;;
25263;SDS011;13211;51.796;5.808;2024-02-26T11:41:06;36.57;;;20.80;;
25263;SDS011;13211;51.796;5.808;2024-02-26T11:43:50;36.23;;;21.97;;
25263;SDS011;13211;51.796;5.808;2024-02-26T11:46:31;36.22;;;21.95;;
25263;SDS011;13211;51.796;5.808;2024-02-26T11:49:00;36.35;;;21.35;;
25263;SDS011;13211;51.796;5.808;2024-02-26T11:51:33;37.42;;;22.08;;
25263;SDS011;13211;51.796;5.808;2024-02-26T11:54:01;41.22;;;23.10;;
25263;SDS011;13211;51.796;5.808;2024-02-26T11:56:29;39.08;;;22.42;;
25263;SDS011;13211;51.796;5.808;2024-02-26T12:04:04;34.72;;;21.35;;
25263;SDS011;13211;51.796;5.808;2024-02-26T12:06:45;39.35;;;21.65;;
25263;SDS011;13211;51.796;5.808;2024-02-26T12:09:18;37.03;;;20.60;;
25263;SDS011;13211;51.796;5.808;2024-02-26T12:11:57;34.53;;;20.45;;
25263;SDS011;13211;51.796;5.808;2024-02-26T12:14:25;36.30;;;20.80;;
25263;SDS011;13211;51.796;5.808;2024-02-26T12:16:54;29.90;;;18.75;;
25263;SDS011;13211;51.796;5.808;2024-02-26T12:19:25;32.85;;;19.15;;
25263;SDS011;13211;51.796;5.808;2024-02-26T12:21:54;31.98;;;19.60;;
25263;SDS011;13211;51.796;5.808;2024-02-26T12:24:22;29.58;;;18.00;;
25263;SDS011;13211;51.796;5.808;2024-02-26T12:26:50;31.27;;;19.02;;
25263;SDS011;13211;51.796;5.808;2024-02-26T12:29:18;32.20;;;18.67;;
25263;SDS011;13211;51.796;5.808;2024-02-26T12:31:45;30.70;;;17.60;;
25263;SDS011;13211;51.796;5.808;2024-02-26T12:34:14;26.57;;;16.30;;
25263;SDS011;13211;51.796;5.808;2024-02-26T12:36:48;27.20;;;16.85;;
25263;SDS011;13211;51.796;5.808;2024-02-26T12:39:16;25.17;;;15.90;;
25263;SDS011;13211;51.796;5.808;2024-02-26T12:41:49;25.83;;;16.45;;
25263;SDS011;13211;51.796;5.808;2024-02-26T12:44:17;27.67;;;16.50;;
25263;SDS011;13211;51.796;5.808;2024-02-26T12:46:45;26.50;;;16.10;;
25263;SDS011;13211;51.796;5.808;2024-02-26T12:51:48;28.73;;;15.63;;
25263;SDS011;13211;51.796;5.808;2024-02-26T12:54:18;26.15;;;15.30;;
25263;SDS011;13211;51.796;5.808;2024-02-26T12:56:46;27.77;;;15.07;;
25263;SDS011;13211;51.796;5.808;2024-02-26T12:59:14;24.97;;;14.97;;
25263;SDS011;13211;51.796;5.808;2024-02-26T13:01:42;23.07;;;13.90;;
25263;SDS011;13211;51.796;5.808;2024-02-26T13:04:09;23.02;;;14.27;;
25263;SDS011;13211;51.796;5.808;2024-02-26T13:06:38;24.83;;;13.80;;
25263;SDS011;13211;51.796;5.808;2024-02-26T13:09:07;22.13;;;13.50;;
25263;SDS011;13211;51.796;5.808;2024-02-26T13:11:39;20.00;;;12.82;;
25263;SDS011;13211;51.796;5.808;2024-02-26T13:14:18;20.80;;;12.23;;
25263;SDS011;13211;51.796;5.808;2024-02-26T13:17:01;19.25;;;12.35;;
25263;SDS011;13211;51.796;5.808;2024-02-26T13:19:29;20.67;;;12.27;;
25263;SDS011;13211;51.796;5.808;2024-02-26T13:22:03;20.63;;;12.13;;
25263;SDS011;13211;51.796;5.808;2024-02-26T13:24:40;17.65;;;11.20;;
25263;SDS011;13211;51.796;5.808;2024-02-26T13:27:20;18.67;;;11.73;;
25263;SDS011;13211;51.796;5.808;2024-02-26T13:30:05;20.67;;;11.98;;
25263;SDS011;13211;51.796;5.808;2024-02-26T13:32:40;22.77;;;12.40;;
25263;SDS011;13211;51.796;5.808;2024-02-26T13:35:11;20.00;;;12.50;;
25263;SDS011;13211;51.796;5.808;2024-02-26T13:37:50;20.27;;;12.18;;
25263;SDS011;13211;51.796;5.808;2024-02-26T13:40:20;19.38;;;12.25;;
25263;SDS011;13211;51.796;5.808;2024-02-26T13:42:48;18.42;;;11.60;;
25263;SDS011;13211;51.796;5.808;2024-02-26T13:45:15;18.67;;;11.60;;
25263;SDS011;13211;51.796;5.808;2024-02-26T13:47:51;17.65;;;11.43;;
25263;SDS011;13211;51.796;5.808;2024-02-26T13:50:25;20.98;;;11.73;;
25263;SDS011;13211;51.796;5.808;2024-02-26T13:52:55;17.90;;;11.55;;
25263;SDS011;13211;51.796;5.808;2024-02-26T13:55:27;19.37;;;12.70;;
25263;SDS011;13211;51.796;5.808;2024-02-26T13:57:57;17.63;;;11.23;;
25263;SDS011;13211;51.796;5.808;2024-02-26T14:00:30;19.85;;;12.35;;
25263;SDS011;13211;51.796;5.808;2024-02-26T14:03:00;17.58;;;11.50;;
25263;SDS011;13211;51.796;5.808;2024-02-26T14:05:28;18.42;;;12.40;;
25263;SDS011;13211;51.796;5.808;2024-02-26T14:07:56;17.97;;;11.70;;
25263;SDS011;13211;51.796;5.808;2024-02-26T14:10:24;19.80;;;12.25;;
25263;SDS011;13211;51.796;5.808;2024-02-26T14:12:53;18.88;;;11.90;;
25263;SDS011;13211;51.796;5.808;2024-02-26T14:15:21;20.90;;;12.60;;
25263;SDS011;13211;51.796;5.808;2024-02-26T14:17:51;16.88;;;12.10;;
25263;SDS011;13211;51.796;5.808;2024-02-26T14:20:26;17.40;;;11.82;;
25263;SDS011;13211;51.796;5.808;2024-02-26T14:22:53;18.05;;;12.02;;
25263;SDS011;13211;51.796;5.808;2024-02-26T14:25:21;18.98;;;13.10;;
25263;SDS011;13211;51.796;5.808;2024-02-26T14:27:50;19.00;;;12.18;;
25263;SDS011;13211;51.796;5.808;2024-02-26T14:30:18;18.73;;;12.80;;
25263;SDS011;13211;51.796;5.808;2024-02-26T14:32:46;17.85;;;12.55;;
25263;SDS011;13211;51.796;5.808;2024-02-26T14:35:14;19.50;;;12.60;;
25263;SDS011;13211;51.796;5.808;2024-02-26T14:37:48;19.23;;;12.85;;
25263;SDS011;13211;51.796;5.808;2024-02-26T14:40:17;23.02;;;13.32;;
25263;SDS011;13211;51.796;5.808;2024-02-26T14:42:45;19.27;;;12.90;;
25263;SDS011;13211;51.796;5.808;2024-02-26T14:45:13;19.02;;;12.70;;
25263;SDS011;13211;51.796;5.808;2024-02-26T14:47:41;19.17;;;12.75;;
25263;SDS011;13211;51.796;5.808;2024-02-26T14:50:09;19.70;;;13.50;;
25263;SDS011;13211;51.796;5.808;2024-02-26T14:52:37;19.60;;;13.35;;